sensor_id;sensor_type;location;lat;lon;timestamp;P1;durP1;ratioP1;P2;durP2;ratioP2
1010;SDS011;494;48.744;10.106;2023-02-28T00:00:42;11.95;;;6.20;;
1010;SDS011;494;48.744;10.106;2023-02-28T00:03:13;12.30;;;6.43;;
1010;SDS011;494;48.744;10.106;2023-02-28T00:05:44;12.05;;;6.20;;
1010;SDS011;494;48.744;10.106;2023-02-28T00:08:13;11.23;;;6.00;;
1010;SDS011;494;48.744;10.106;2023-02-28T00:10:43;11.13;;;6.00;;
1010;SDS011;494;48.744;10.106;2023-02-28T00:13:12;12.45;;;6.30;;
1010;SDS011;494;48.744;10.106;2023-02-28T00:15:41;11.25;;;6.72;;
1010;SDS011;494;48.744;10.106;2023-02-28T00:18:10;12.40;;;6.05;;
1010;SDS011;494;48.744;10.106;2023-02-28T00:20:41;12.93;;;6.40;;
1010;SDS011;494;48.744;10.106;2023-02-28T00:23:10;11.65;;;6.03;;
1010;SDS011;494;48.744;10.106;2023-02-28T00:25:39;12.93;;;6.78;;
1010;SDS011;494;48.744;10.106;2023-02-28T00:28:11;16.52;;;6.28;;
1010;SDS011;494;48.744;10.106;2023-02-28T00:30:41;14.02;;;5.90;;
1010;SDS011;494;48.744;10.106;2023-02-28T00:33:10;13.55;;;7.00;;
1010;SDS011;494;48.744;10.106;2023-02-28T00:35:40;12.23;;;6.55;;
1010;SDS011;494;48.744;10.106;2023-02-28T00:38:09;11.80;;;6.03;;
1010;SDS011;494;48.744;10.106;2023-02-28T00:40:37;14.02;;;6.07;;
1010;SDS011;494;48.744;10.106;2023-02-28T00:43:06;13.27;;;7.10;;
1010;SDS011;494;48.744;10.106;2023-02-28T00:45:35;12.40;;;6.25;;
1010;SDS011;494;48.744;10.106;2023-02-28T00:48:03;12.43;;;6.18;;
1010;SDS011;494;48.744;10.106;2023-02-28T00:50:34;12.23;;;6.07;;
1010;SDS011;494;48.744;10.106;2023-02-28T00:53:03;14.20;;;6.53;;
1010;SDS011;494;48.744;10.106;2023-02-28T00:55:31;12.60;;;6.78;;
1010;SDS011;494;48.744;10.106;2023-02-28T00:58:00;14.82;;;7.63;;
1010;SDS011;494;48.744;10.106;2023-02-28T01:00:29;13.38;;;7.18;;
1010;SDS011;494;48.744;10.106;2023-02-28T01:02:57;13.45;;;6.70;;
1010;SDS011;494;48.744;10.106;2023-02-28T01:05:26;13.25;;;6.95;;
1010;SDS011;494;48.744;10.106;2023-02-28T01:07:57;12.20;;;7.10;;
1010;SDS011;494;48.744;10.106;2023-02-28T01:10:25;13.73;;;7.10;;
1010;SDS011;494;48.744;10.106;2023-02-28T01:12:57;12.38;;;7.07;;
1010;SDS011;494;48.744;10.106;2023-02-28T01:15:26;13.88;;;7.43;;
1010;SDS011;494;48.744;10.106;2023-02-28T01:17:55;14.45;;;7.03;;
1010;SDS011;494;48.744;10.106;2023-02-28T01:20:24;15.20;;;7.00;;
1010;SDS011;494;48.744;10.106;2023-02-28T01:22:53;14.95;;;7.15;;
1010;SDS011;494;48.744;10.106;2023-02-28T01:25:23;12.65;;;6.82;;
1010;SDS011;494;48.744;10.106;2023-02-28T01:27:51;14.48;;;7.55;;
1010;SDS011;494;48.744;10.106;2023-02-28T01:30:20;14.07;;;7.60;;
1010;SDS011;494;48.744;10.106;2023-02-28T01:32:49;17.13;;;7.45;;
1010;SDS011;494;48.744;10.106;2023-02-28T01:35:20;13.35;;;7.57;;
1010;SDS011;494;48.744;10.106;2023-02-28T01:37:49;14.15;;;7.90;;
1010;SDS011;494;48.744;10.106;2023-02-28T01:40:17;14.27;;;7.55;;
1010;SDS011;494;48.744;10.106;2023-02-28T01:42:48;14.55;;;7.57;;
1010;SDS011;494;48.744;10.106;2023-02-28T01:45:19;16.20;;;7.85;;
1010;SDS011;494;48.744;10.106;2023-02-28T01:47:55;13.73;;;7.28;;
1010;SDS011;494;48.744;10.106;2023-02-28T01:50:31;17.65;;;7.93;;
1010;SDS011;494;48.744;10.106;2023-02-28T01:53:07;14.10;;;7.38;;
1010;SDS011;494;48.744;10.106;2023-02-28T01:55:45;14.20;;;7.45;;
1010;SDS011;494;48.744;10.106;2023-02-28T01:58:20;14.07;;;8.15;;
1010;SDS011;494;48.744;10.106;2023-02-28T02:00:49;13.20;;;7.45;;
1010;SDS011;494;48.744;10.106;2023-02-28T02:03:19;15.23;;;7.53;;
1010;SDS011;494;48.744;10.106;2023-02-28T02:05:48;16.30;;;8.48;;
1010;SDS011;494;48.744;10.106;2023-02-28T02:08:17;18.08;;;8.07;;
1010;SDS011;494;48.744;10.106;2023-02-28T02:10:51;15.30;;;7.70;;
1010;SDS011;494;48.744;10.106;2023-02-28T02:13:28;14.63;;;8.07;;
1010;SDS011;494;48.744;10.106;2023-02-28T02:16:43;15.68;;;8.27;;
1010;SDS011;494;48.744;10.106;2023-02-28T02:19:46;14.50;;;8.38;;
1010;SDS011;494;48.744;10.106;2023-02-28T02:23:07;14.93;;;7.90;;
1010;SDS011;494;48.744;10.106;2023-02-28T02:26:03;14.73;;;7.85;;
1010;SDS011;494;48.744;10.106;2023-02-28T02:29:04;17.00;;;8.93;;
1010;SDS011;494;48.744;10.106;2023-02-28T02:32:16;15.13;;;7.80;;
1010;SDS011;494;48.744;10.106;2023-02-28T02:35:25;13.60;;;7.93;;
1010;SDS011;494;48.744;10.106;2023-02-28T02:37:59;15.18;;;8.60;;
1010;SDS011;494;48.744;10.106;2023-02-28T02:40:41;14.70;;;8.32;;
1010;SDS011;494;48.744;10.106;2023-02-28T02:43:18;18.15;;;8.48;;
1010;SDS011;494;48.744;10.106;2023-02-28T02:45:53;15.95;;;9.02;;
1010;SDS011;494;48.744;10.106;2023-02-28T02:48:27;17.13;;;9.15;;
1010;SDS011;494;48.744;10.106;2023-02-28T02:51:03;17.30;;;9.63;;
1010;SDS011;494;48.744;10.106;2023-02-28T02:53:40;16.15;;;8.95;;
1010;SDS011;494;48.744;10.106;2023-02-28T02:56:17;19.05;;;9.15;;
1010;SDS011;494;48.744;10.106;2023-02-28T02:58:51;15.98;;;9.02;;
1010;SDS011;494;48.744;10.106;2023-02-28T03:01:29;17.63;;;9.63;;
1010;SDS011;494;48.744;10.106;2023-02-28T03:04:00;18.02;;;9.15;;
1010;SDS011;494;48.744;10.106;2023-02-28T03:06:36;17.23;;;9.40;;
1010;SDS011;494;48.744;10.106;2023-02-28T03:09:05;17.77;;;9.77;;
1010;SDS011;494;48.744;10.106;2023-02-28T03:11:34;16.55;;;9.05;;
1010;SDS011;494;48.744;10.106;2023-02-28T03:17:23;20.25;;;9.95;;
1010;SDS011;494;48.744;10.106;2023-02-28T03:20:21;17.08;;;9.63;;
1010;SDS011;494;48.744;10.106;2023-02-28T03:23:13;19.05;;;9.38;;
1010;SDS011;494;48.744;10.106;2023-02-28T03:25:52;16.83;;;9.35;;
1010;SDS011;494;48.744;10.106;2023-02-28T03:28:29;19.38;;;10.35;;
1010;SDS011;494;48.744;10.106;2023-02-28T03:31:10;17.58;;;9.43;;
1010;SDS011;494;48.744;10.106;2023-02-28T03:33:47;17.83;;;9.40;;
1010;SDS011;494;48.744;10.106;2023-02-28T03:36:26;18.38;;;9.55;;
1010;SDS011;494;48.744;10.106;2023-02-28T03:39:02;16.73;;;9.30;;
1010;SDS011;494;48.744;10.106;2023-02-28T03:41:36;19.65;;;9.90;;
1010;SDS011;494;48.744;10.106;2023-02-28T03:44:15;20.60;;;10.00;;
1010;SDS011;494;48.744;10.106;2023-02-28T03:46:51;19.48;;;9.40;;
1010;SDS011;494;48.744;10.106;2023-02-28T03:49:30;17.70;;;9.15;;
1010;SDS011;494;48.744;10.106;2023-02-28T03:52:04;19.08;;;10.27;;
1010;SDS011;494;48.744;10.106;2023-02-28T03:54:38;17.20;;;9.15;;
1010;SDS011;494;48.744;10.106;2023-02-28T03:57:15;18.35;;;10.07;;
1010;SDS011;494;48.744;10.106;2023-02-28T03:59:56;22.13;;;10.30;;
1010;SDS011;494;48.744;10.106;2023-02-28T04:02:30;17.55;;;9.70;;
1010;SDS011;494;48.744;10.106;2023-02-28T04:04:59;19.00;;;9.95;;
1010;SDS011;494;48.744;10.106;2023-02-28T04:07:29;19.75;;;9.57;;
1010;SDS011;494;48.744;10.106;2023-02-28T04:09:59;19.65;;;9.57;;
1010;SDS011;494;48.744;10.106;2023-02-28T04:12:28;18.60;;;9.60;;
1010;SDS011;494;48.744;10.106;2023-02-28T04:14:57;16.65;;;9.40;;
1010;SDS011;494;48.744;10.106;2023-02-28T04:17:26;19.60;;;10.65;;
1010;SDS011;494;48.744;10.106;2023-02-28T04:19:54;17.60;;;9.45;;
1010;SDS011;494;48.744;10.106;2023-02-28T04:22:24;19.77;;;9.60;;
1010;SDS011;494;48.744;10.106;2023-02-28T04:24:53;19.42;;;10.25;;
1010;SDS011;494;48.744;10.106;2023-02-28T04:27:23;18.67;;;10.13;;
1010;SDS011;494;48.744;10.106;2023-02-28T04:29:52;22.05;;;10.10;;
1010;SDS011;494;48.744;10.106;2023-02-28T04:32:20;18.13;;;9.57;;
1010;SDS011;494;48.744;10.106;2023-02-28T04:34:49;21.42;;;10.05;;
1010;SDS011;494;48.744;10.106;2023-02-28T04:37:18;21.42;;;10.35;;
1010;SDS011;494;48.744;10.106;2023-02-28T04:39:47;17.92;;;9.63;;
1010;SDS011;494;48.744;10.106;2023-02-28T04:42:16;18.02;;;9.95;;
1010;SDS011;494;48.744;10.106;2023-02-28T04:44:46;20.92;;;10.63;;
1010;SDS011;494;48.744;10.106;2023-02-28T04:47:15;20.92;;;10.85;;
1010;SDS011;494;48.744;10.106;2023-02-28T04:49:44;20.17;;;10.70;;
1010;SDS011;494;48.744;10.106;2023-02-28T04:52:12;19.75;;;11.10;;
1010;SDS011;494;48.744;10.106;2023-02-28T04:54:41;18.67;;;10.32;;
1010;SDS011;494;48.744;10.106;2023-02-28T04:57:09;20.00;;;10.57;;
1010;SDS011;494;48.744;10.106;2023-02-28T04:59:38;17.92;;;9.85;;
1010;SDS011;494;48.744;10.106;2023-02-28T05:02:08;22.15;;;10.85;;
1010;SDS011;494;48.744;10.106;2023-02-28T05:04:37;18.60;;;10.30;;
1010;SDS011;494;48.744;10.106;2023-02-28T05:07:06;22.55;;;11.50;;
1010;SDS011;494;48.744;10.106;2023-02-28T05:09:34;22.85;;;11.18;;
1010;SDS011;494;48.744;10.106;2023-02-28T05:12:03;20.25;;;10.90;;
1010;SDS011;494;48.744;10.106;2023-02-28T05:14:32;20.05;;;10.05;;
1010;SDS011;494;48.744;10.106;2023-02-28T05:17:01;20.08;;;10.63;;
1010;SDS011;494;48.744;10.106;2023-02-28T05:19:31;20.95;;;10.55;;
1010;SDS011;494;48.744;10.106;2023-02-28T05:21:59;23.55;;;11.15;;
1010;SDS011;494;48.744;10.106;2023-02-28T05:24:29;21.95;;;11.13;;
1010;SDS011;494;48.744;10.106;2023-02-28T05:26:57;20.48;;;11.10;;
1010;SDS011;494;48.744;10.106;2023-02-28T05:29:26;20.13;;;10.63;;
1010;SDS011;494;48.744;10.106;2023-02-28T05:31:55;19.38;;;10.57;;
1010;SDS011;494;48.744;10.106;2023-02-28T05:34:24;20.38;;;10.45;;
1010;SDS011;494;48.744;10.106;2023-02-28T05:36:54;19.88;;;10.82;;
1010;SDS011;494;48.744;10.106;2023-02-28T05:39:22;20.58;;;10.55;;
1010;SDS011;494;48.744;10.106;2023-02-28T05:41:51;21.60;;;12.05;;
1010;SDS011;494;48.744;10.106;2023-02-28T05:44:19;20.83;;;11.68;;
1010;SDS011;494;48.744;10.106;2023-02-28T05:46:48;20.45;;;11.18;;
1010;SDS011;494;48.744;10.106;2023-02-28T05:49:17;19.85;;;11.40;;
1010;SDS011;494;48.744;10.106;2023-02-28T05:51:45;22.42;;;11.65;;
1010;SDS011;494;48.744;10.106;2023-02-28T05:54:15;21.15;;;11.20;;
1010;SDS011;494;48.744;10.106;2023-02-28T05:56:44;23.10;;;11.75;;
1010;SDS011;494;48.744;10.106;2023-02-28T05:59:13;26.13;;;11.57;;
1010;SDS011;494;48.744;10.106;2023-02-28T06:01:42;22.40;;;11.70;;
1010;SDS011;494;48.744;10.106;2023-02-28T06:04:15;20.38;;;11.40;;
1010;SDS011;494;48.744;10.106;2023-02-28T06:06:57;22.23;;;11.02;;
1010;SDS011;494;48.744;10.106;2023-02-28T06:09:27;22.70;;;11.07;;
1010;SDS011;494;48.744;10.106;2023-02-28T06:11:57;22.33;;;11.82;;
1010;SDS011;494;48.744;10.106;2023-02-28T06:14:26;23.23;;;11.25;;
1010;SDS011;494;48.744;10.106;2023-02-28T06:17:16;23.77;;;12.63;;
1010;SDS011;494;48.744;10.106;2023-02-28T06:20:14;21.20;;;11.50;;
1010;SDS011;494;48.744;10.106;2023-02-28T06:28:11;24.90;;;11.50;;
1010;SDS011;494;48.744;10.106;2023-02-28T06:32:49;25.05;;;12.07;;
1010;SDS011;494;48.744;10.106;2023-02-28T06:35:08;27.00;;;12.98;;
1010;SDS011;494;48.744;10.106;2023-02-28T06:43:02;24.85;;;11.50;;
1010;SDS011;494;48.744;10.106;2023-02-28T06:45:34;25.90;;;12.43;;
1010;SDS011;494;48.744;10.106;2023-02-28T06:48:05;27.17;;;13.98;;
1010;SDS011;494;48.744;10.106;2023-02-28T06:50:34;24.50;;;12.20;;
1010;SDS011;494;48.744;10.106;2023-02-28T06:53:03;26.10;;;13.55;;
1010;SDS011;494;48.744;10.106;2023-02-28T06:55:32;27.92;;;12.95;;
1010;SDS011;494;48.744;10.106;2023-02-28T06:58:01;24.27;;;12.90;;
1010;SDS011;494;48.744;10.106;2023-02-28T07:00:41;26.27;;;13.35;;
1010;SDS011;494;48.744;10.106;2023-02-28T07:03:11;24.58;;;12.93;;
1010;SDS011;494;48.744;10.106;2023-02-28T07:05:42;23.90;;;11.82;;
1010;SDS011;494;48.744;10.106;2023-02-28T07:08:10;23.70;;;12.07;;
1010;SDS011;494;48.744;10.106;2023-02-28T07:10:40;21.67;;;11.77;;
1010;SDS011;494;48.744;10.106;2023-02-28T07:13:09;25.77;;;13.18;;
1010;SDS011;494;48.744;10.106;2023-02-28T07:15:38;25.80;;;12.85;;
1010;SDS011;494;48.744;10.106;2023-02-28T07:18:11;27.52;;;13.15;;
1010;SDS011;494;48.744;10.106;2023-02-28T07:20:40;23.67;;;12.90;;
1010;SDS011;494;48.744;10.106;2023-02-28T07:23:09;24.50;;;12.40;;
1010;SDS011;494;48.744;10.106;2023-02-28T07:25:38;22.60;;;12.88;;
1010;SDS011;494;48.744;10.106;2023-02-28T07:28:06;28.23;;;13.40;;
1010;SDS011;494;48.744;10.106;2023-02-28T07:30:35;28.77;;;14.48;;
1010;SDS011;494;48.744;10.106;2023-02-28T07:33:04;30.58;;;14.60;;
1010;SDS011;494;48.744;10.106;2023-02-28T07:35:36;23.73;;;12.23;;
1010;SDS011;494;48.744;10.106;2023-02-28T07:38:05;23.38;;;12.50;;
1010;SDS011;494;48.744;10.106;2023-02-28T07:40:35;31.65;;;16.52;;
1010;SDS011;494;48.744;10.106;2023-02-28T07:43:04;26.20;;;14.40;;
1010;SDS011;494;48.744;10.106;2023-02-28T07:45:33;27.55;;;13.80;;
1010;SDS011;494;48.744;10.106;2023-02-28T07:48:02;24.60;;;13.05;;
1010;SDS011;494;48.744;10.106;2023-02-28T07:50:31;25.48;;;13.68;;
1010;SDS011;494;48.744;10.106;2023-02-28T07:53:02;25.35;;;12.90;;
1010;SDS011;494;48.744;10.106;2023-02-28T07:55:31;31.50;;;14.32;;
1010;SDS011;494;48.744;10.106;2023-02-28T07:58:00;26.65;;;14.88;;
1010;SDS011;494;48.744;10.106;2023-02-28T08:00:29;26.35;;;13.15;;
1010;SDS011;494;48.744;10.106;2023-02-28T08:02:58;22.83;;;13.32;;
1010;SDS011;494;48.744;10.106;2023-02-28T08:05:27;28.60;;;14.40;;
1010;SDS011;494;48.744;10.106;2023-02-28T08:07:56;27.83;;;14.50;;
1010;SDS011;494;48.744;10.106;2023-02-28T08:10:27;26.33;;;13.80;;
1010;SDS011;494;48.744;10.106;2023-02-28T08:12:55;23.63;;;13.07;;
1010;SDS011;494;48.744;10.106;2023-02-28T08:15:24;26.90;;;13.70;;
1010;SDS011;494;48.744;10.106;2023-02-28T08:17:53;26.15;;;14.38;;
1010;SDS011;494;48.744;10.106;2023-02-28T08:20:22;25.70;;;14.05;;
1010;SDS011;494;48.744;10.106;2023-02-28T08:22:51;28.92;;;15.07;;
1010;SDS011;494;48.744;10.106;2023-02-28T08:25:20;26.95;;;14.52;;
1010;SDS011;494;48.744;10.106;2023-02-28T08:27:51;25.77;;;14.15;;
1010;SDS011;494;48.744;10.106;2023-02-28T08:30:20;28.80;;;15.75;;
1010;SDS011;494;48.744;10.106;2023-02-28T08:32:50;26.95;;;14.00;;
1010;SDS011;494;48.744;10.106;2023-02-28T08:35:18;25.98;;;14.23;;
1010;SDS011;494;48.744;10.106;2023-02-28T08:37:47;24.67;;;12.65;;
1010;SDS011;494;48.744;10.106;2023-02-28T08:40:16;26.88;;;14.68;;
1010;SDS011;494;48.744;10.106;2023-02-28T08:42:45;25.25;;;13.25;;
1010;SDS011;494;48.744;10.106;2023-02-28T08:45:16;30.17;;;14.80;;
1010;SDS011;494;48.744;10.106;2023-02-28T08:47:45;26.05;;;14.75;;
1010;SDS011;494;48.744;10.106;2023-02-28T08:50:14;25.27;;;14.40;;
1010;SDS011;494;48.744;10.106;2023-02-28T08:52:43;25.92;;;15.10;;
1010;SDS011;494;48.744;10.106;2023-02-28T08:55:12;27.00;;;15.32;;
1010;SDS011;494;48.744;10.106;2023-02-28T08:57:40;30.90;;;15.48;;
1010;SDS011;494;48.744;10.106;2023-02-28T09:00:09;24.70;;;14.38;;
1010;SDS011;494;48.744;10.106;2023-02-28T09:02:42;27.43;;;14.27;;
1010;SDS011;494;48.744;10.106;2023-02-28T09:05:10;24.60;;;13.68;;
1010;SDS011;494;48.744;10.106;2023-02-28T09:07:39;25.02;;;14.63;;
1010;SDS011;494;48.744;10.106;2023-02-28T09:10:08;24.50;;;12.98;;
1010;SDS011;494;48.744;10.106;2023-02-28T09:12:38;27.02;;;14.00;;
1010;SDS011;494;48.744;10.106;2023-02-28T09:15:07;26.15;;;13.95;;
1010;SDS011;494;48.744;10.106;2023-02-28T09:17:37;23.25;;;13.85;;
1010;SDS011;494;48.744;10.106;2023-02-28T09:20:08;29.23;;;14.88;;
1010;SDS011;494;48.744;10.106;2023-02-28T09:22:38;31.10;;;15.68;;
1010;SDS011;494;48.744;10.106;2023-02-28T09:25:07;28.48;;;14.75;;
1010;SDS011;494;48.744;10.106;2023-02-28T09:27:35;26.45;;;14.48;;
1010;SDS011;494;48.744;10.106;2023-02-28T09:30:05;28.38;;;15.35;;
1010;SDS011;494;48.744;10.106;2023-02-28T09:32:35;27.67;;;14.07;;
1010;SDS011;494;48.744;10.106;2023-02-28T09:35:04;30.90;;;15.68;;
1010;SDS011;494;48.744;10.106;2023-02-28T09:37:39;27.38;;;15.23;;
1010;SDS011;494;48.744;10.106;2023-02-28T09:40:08;27.25;;;14.50;;
1010;SDS011;494;48.744;10.106;2023-02-28T09:42:39;28.23;;;14.57;;
1010;SDS011;494;48.744;10.106;2023-02-28T09:45:11;27.83;;;14.43;;
1010;SDS011;494;48.744;10.106;2023-02-28T09:47:50;27.38;;;15.52;;
1010;SDS011;494;48.744;10.106;2023-02-28T09:50:29;29.25;;;15.45;;
1010;SDS011;494;48.744;10.106;2023-02-28T09:53:04;24.98;;;14.88;;
1010;SDS011;494;48.744;10.106;2023-02-28T09:55:43;26.70;;;15.23;;
1010;SDS011;494;48.744;10.106;2023-02-28T09:58:19;30.23;;;15.13;;
1010;SDS011;494;48.744;10.106;2023-02-28T10:00:56;27.90;;;15.30;;
1010;SDS011;494;48.744;10.106;2023-02-28T10:03:35;27.98;;;14.98;;
1010;SDS011;494;48.744;10.106;2023-02-28T10:06:10;28.30;;;14.80;;
1010;SDS011;494;48.744;10.106;2023-02-28T10:08:47;26.83;;;14.40;;
1010;SDS011;494;48.744;10.106;2023-02-28T10:11:25;29.47;;;14.77;;
1010;SDS011;494;48.744;10.106;2023-02-28T10:13:59;28.53;;;15.03;;
1010;SDS011;494;48.744;10.106;2023-02-28T10:16:39;26.83;;;15.47;;
1010;SDS011;494;48.744;10.106;2023-02-28T10:19:19;24.93;;;14.43;;
1010;SDS011;494;48.744;10.106;2023-02-28T10:21:56;28.70;;;14.63;;
1010;SDS011;494;48.744;10.106;2023-02-28T10:24:29;25.00;;;14.47;;
1010;SDS011;494;48.744;10.106;2023-02-28T10:27:06;27.23;;;14.33;;
1010;SDS011;494;48.744;10.106;2023-02-28T10:29:43;22.77;;;14.10;;
1010;SDS011;494;48.744;10.106;2023-02-28T10:32:15;22.70;;;13.70;;
1010;SDS011;494;48.744;10.106;2023-02-28T10:34:49;25.90;;;14.20;;
1010;SDS011;494;48.744;10.106;2023-02-28T10:37:24;24.40;;;14.23;;
1010;SDS011;494;48.744;10.106;2023-02-28T10:39:55;24.80;;;13.83;;
1010;SDS011;494;48.744;10.106;2023-02-28T10:42:24;26.80;;;14.77;;
1010;SDS011;494;48.744;10.106;2023-02-28T10:47:51;23.40;;;13.57;;
1010;SDS011;494;48.744;10.106;2023-02-28T10:50:26;22.40;;;14.00;;
1010;SDS011;494;48.744;10.106;2023-02-28T10:53:16;22.43;;;13.43;;
1010;SDS011;494;48.744;10.106;2023-02-28T10:56:20;22.40;;;13.47;;
1010;SDS011;494;48.744;10.106;2023-02-28T10:58:54;23.70;;;13.70;;
1010;SDS011;494;48.744;10.106;2023-02-28T11:01:33;20.90;;;13.07;;
1010;SDS011;494;48.744;10.106;2023-02-28T11:04:16;24.57;;;13.43;;
1010;SDS011;494;48.744;10.106;2023-02-28T11:06:51;20.30;;;12.73;;
1010;SDS011;494;48.744;10.106;2023-02-28T11:09:28;22.73;;;13.87;;
1010;SDS011;494;48.744;10.106;2023-02-28T11:12:01;21.53;;;13.27;;
1010;SDS011;494;48.744;10.106;2023-02-28T11:14:34;24.10;;;13.50;;
1010;SDS011;494;48.744;10.106;2023-02-28T11:17:19;21.93;;;13.97;;
1010;SDS011;494;48.744;10.106;2023-02-28T11:19:51;21.27;;;13.53;;
1010;SDS011;494;48.744;10.106;2023-02-28T11:22:24;20.47;;;13.67;;
1010;SDS011;494;48.744;10.106;2023-02-28T11:24:59;21.83;;;13.40;;
1010;SDS011;494;48.744;10.106;2023-02-28T11:27:44;22.47;;;13.50;;
1010;SDS011;494;48.744;10.106;2023-02-28T11:30:26;21.53;;;13.70;;
1010;SDS011;494;48.744;10.106;2023-02-28T11:36:08;22.83;;;13.83;;
1010;SDS011;494;48.744;10.106;2023-02-28T11:38:41;23.47;;;14.27;;
1010;SDS011;494;48.744;10.106;2023-02-28T11:41:21;22.20;;;12.63;;
1010;SDS011;494;48.744;10.106;2023-02-28T11:44:16;21.93;;;13.10;;
1010;SDS011;494;48.744;10.106;2023-02-28T11:46:58;22.33;;;13.60;;
1010;SDS011;494;48.744;10.106;2023-02-28T11:49:37;19.93;;;12.53;;
1010;SDS011;494;48.744;10.106;2023-02-28T11:52:20;22.60;;;13.53;;
1010;SDS011;494;48.744;10.106;2023-02-28T11:55:03;21.90;;;13.27;;
1010;SDS011;494;48.744;10.106;2023-02-28T11:57:52;23.33;;;13.87;;
1010;SDS011;494;48.744;10.106;2023-02-28T12:00:52;20.47;;;12.93;;
1010;SDS011;494;48.744;10.106;2023-02-28T12:03:39;21.37;;;13.77;;
1010;SDS011;494;48.744;10.106;2023-02-28T12:06:18;21.10;;;13.33;;
1010;SDS011;494;48.744;10.106;2023-02-28T12:09:04;20.07;;;13.53;;
1010;SDS011;494;48.744;10.106;2023-02-28T12:12:07;22.10;;;12.70;;
1010;SDS011;494;48.744;10.106;2023-02-28T12:15:04;22.13;;;13.20;;
1010;SDS011;494;48.744;10.106;2023-02-28T12:17:53;21.93;;;13.70;;
1010;SDS011;494;48.744;10.106;2023-02-28T12:20:40;21.70;;;13.27;;
1010;SDS011;494;48.744;10.106;2023-02-28T12:23:23;19.40;;;12.33;;
1010;SDS011;494;48.744;10.106;2023-02-28T12:26:17;18.90;;;12.00;;
1010;SDS011;494;48.744;10.106;2023-02-28T12:28:57;23.30;;;14.83;;
1010;SDS011;494;48.744;10.106;2023-02-28T12:31:38;21.00;;;13.53;;
1010;SDS011;494;48.744;10.106;2023-02-28T12:34:14;24.07;;;13.67;;
1010;SDS011;494;48.744;10.106;2023-02-28T12:36:49;22.47;;;14.30;;
1010;SDS011;494;48.744;10.106;2023-02-28T12:39:23;22.20;;;12.57;;
1010;SDS011;494;48.744;10.106;2023-02-28T12:42:16;21.40;;;13.20;;
1010;SDS011;494;48.744;10.106;2023-02-28T12:44:54;19.30;;;12.80;;
1010;SDS011;494;48.744;10.106;2023-02-28T12:47:30;21.77;;;13.70;;
1010;SDS011;494;48.744;10.106;2023-02-28T12:50:00;22.17;;;12.97;;
1010;SDS011;494;48.744;10.106;2023-02-28T12:52:40;21.30;;;13.13;;
1010;SDS011;494;48.744;10.106;2023-02-28T12:55:21;21.10;;;13.03;;
1010;SDS011;494;48.744;10.106;2023-02-28T12:58:08;19.60;;;12.67;;
1010;SDS011;494;48.744;10.106;2023-02-28T13:00:52;20.77;;;13.80;;
1010;SDS011;494;48.744;10.106;2023-02-28T13:04:07;23.57;;;13.43;;
1010;SDS011;494;48.744;10.106;2023-02-28T13:07:11;21.70;;;13.10;;
1010;SDS011;494;48.744;10.106;2023-02-28T13:10:07;21.60;;;13.03;;
1010;SDS011;494;48.744;10.106;2023-02-28T13:12:42;20.57;;;12.50;;
1010;SDS011;494;48.744;10.106;2023-02-28T13:15:18;23.03;;;12.60;;
1010;SDS011;494;48.744;10.106;2023-02-28T13:17:51;24.33;;;13.77;;
1010;SDS011;494;48.744;10.106;2023-02-28T13:20:25;22.60;;;12.80;;
1010;SDS011;494;48.744;10.106;2023-02-28T13:23:01;22.13;;;12.93;;
1010;SDS011;494;48.744;10.106;2023-02-28T13:35:12;21.53;;;13.57;;
1010;SDS011;494;48.744;10.106;2023-02-28T13:44:10;25.80;;;13.77;;
1010;SDS011;494;48.744;10.106;2023-02-28T13:49:55;23.83;;;13.80;;
1010;SDS011;494;48.744;10.106;2023-02-28T13:52:56;29.60;;;13.47;;
1010;SDS011;494;48.744;10.106;2023-02-28T13:56:10;24.70;;;14.63;;
1010;SDS011;494;48.744;10.106;2023-02-28T13:58:56;24.30;;;13.70;;
1010;SDS011;494;48.744;10.106;2023-02-28T14:01:43;26.40;;;13.97;;
1010;SDS011;494;48.744;10.106;2023-02-28T14:07:24;22.83;;;14.03;;
1010;SDS011;494;48.744;10.106;2023-02-28T14:10:04;24.50;;;14.27;;
1010;SDS011;494;48.744;10.106;2023-02-28T14:12:52;25.17;;;14.57;;
1010;SDS011;494;48.744;10.106;2023-02-28T14:18:29;23.77;;;13.73;;
1010;SDS011;494;48.744;10.106;2023-02-28T14:21:02;22.47;;;13.80;;
1010;SDS011;494;48.744;10.106;2023-02-28T14:23:46;22.87;;;13.97;;
1010;SDS011;494;48.744;10.106;2023-02-28T14:33:32;21.00;;;12.50;;
1010;SDS011;494;48.744;10.106;2023-02-28T14:36:18;22.40;;;14.17;;
1010;SDS011;494;48.744;10.106;2023-02-28T14:38:52;24.73;;;14.60;;
1010;SDS011;494;48.744;10.106;2023-02-28T14:41:28;27.60;;;14.47;;
1010;SDS011;494;48.744;10.106;2023-02-28T14:44:12;23.70;;;14.17;;
1010;SDS011;494;48.744;10.106;2023-02-28T14:46:44;25.30;;;14.33;;
1010;SDS011;494;48.744;10.106;2023-02-28T14:49:17;21.67;;;13.50;;
1010;SDS011;494;48.744;10.106;2023-02-28T14:51:49;24.80;;;13.90;;
1010;SDS011;494;48.744;10.106;2023-02-28T14:54:30;23.87;;;14.47;;
1010;SDS011;494;48.744;10.106;2023-02-28T14:56:59;22.57;;;14.37;;
1010;SDS011;494;48.744;10.106;2023-02-28T14:59:30;21.57;;;13.80;;
1010;SDS011;494;48.744;10.106;2023-02-28T15:02:17;25.30;;;13.90;;
1010;SDS011;494;48.744;10.106;2023-02-28T15:04:55;27.43;;;14.20;;
1010;SDS011;494;48.744;10.106;2023-02-28T15:07:25;25.00;;;14.07;;
1010;SDS011;494;48.744;10.106;2023-02-28T15:10:09;22.00;;;14.30;;
1010;SDS011;494;48.744;10.106;2023-02-28T15:12:45;23.37;;;14.30;;
1010;SDS011;494;48.744;10.106;2023-02-28T15:15:24;22.47;;;14.30;;
1010;SDS011;494;48.744;10.106;2023-02-28T15:18:14;26.33;;;15.07;;
1010;SDS011;494;48.744;10.106;2023-02-28T15:20:52;23.53;;;14.73;;
1010;SDS011;494;48.744;10.106;2023-02-28T15:23:22;24.47;;;14.57;;
1010;SDS011;494;48.744;10.106;2023-02-28T15:25:51;22.27;;;14.37;;
1010;SDS011;494;48.744;10.106;2023-02-28T15:28:22;31.10;;;17.93;;
1010;SDS011;494;48.744;10.106;2023-02-28T15:30:54;24.13;;;15.37;;
1010;SDS011;494;48.744;10.106;2023-02-28T15:33:26;22.53;;;14.07;;
1010;SDS011;494;48.744;10.106;2023-02-28T15:36:10;31.43;;;20.07;;
1010;SDS011;494;48.744;10.106;2023-02-28T15:38:43;26.83;;;15.97;;
1010;SDS011;494;48.744;10.106;2023-02-28T15:41:27;27.90;;;17.10;;
1010;SDS011;494;48.744;10.106;2023-02-28T15:44:14;29.57;;;16.70;;
1010;SDS011;494;48.744;10.106;2023-02-28T15:46:55;27.80;;;16.33;;
1010;SDS011;494;48.744;10.106;2023-02-28T15:49:28;23.53;;;15.60;;
1010;SDS011;494;48.744;10.106;2023-02-28T15:52:12;30.60;;;19.77;;
1010;SDS011;494;48.744;10.106;2023-02-28T15:54:44;30.90;;;17.37;;
1010;SDS011;494;48.744;10.106;2023-02-28T15:57:15;27.17;;;16.53;;
1010;SDS011;494;48.744;10.106;2023-02-28T15:59:49;38.40;;;22.03;;
1010;SDS011;494;48.744;10.106;2023-02-28T16:02:29;43.83;;;24.77;;
1010;SDS011;494;48.744;10.106;2023-02-28T16:05:01;29.60;;;17.70;;
1010;SDS011;494;48.744;10.106;2023-02-28T16:07:54;50.23;;;26.83;;
1010;SDS011;494;48.744;10.106;2023-02-28T16:10:25;32.40;;;19.40;;
1010;SDS011;494;48.744;10.106;2023-02-28T16:12:56;43.13;;;23.30;;
1010;SDS011;494;48.744;10.106;2023-02-28T16:15:26;30.47;;;17.13;;
1010;SDS011;494;48.744;10.106;2023-02-28T16:17:59;29.07;;;17.47;;
1010;SDS011;494;48.744;10.106;2023-02-28T16:20:29;34.13;;;19.50;;
1010;SDS011;494;48.744;10.106;2023-02-28T16:22:58;31.80;;;18.20;;
1010;SDS011;494;48.744;10.106;2023-02-28T16:25:33;33.97;;;20.27;;
1010;SDS011;494;48.744;10.106;2023-02-28T16:28:05;33.73;;;18.30;;
1010;SDS011;494;48.744;10.106;2023-02-28T16:30:43;29.83;;;18.33;;